sensor_id;sensor_type;location;lat;lon;timestamp;P1;durP1;ratioP1;P2;durP2;ratioP2
16127;SDS011;8168;49.036;7.690;2023-08-20T00:00:37;4.95;;;4.55;;
16127;SDS011;8168;49.036;7.690;2023-08-20T00:03:12;5.57;;;4.45;;
16127;SDS011;8168;49.036;7.690;2023-08-20T00:05:43;4.93;;;4.53;;
16127;SDS011;8168;49.036;7.690;2023-08-20T00:08:14;4.47;;;4.10;;
16127;SDS011;8168;49.036;7.690;2023-08-20T00:10:45;4.28;;;3.88;;
16127;SDS011;8168;49.036;7.690;2023-08-20T00:13:16;5.03;;;4.53;;
16127;SDS011;8168;49.036;7.690;2023-08-20T00:15:46;4.70;;;3.85;;
16127;SDS011;8168;49.036;7.690;2023-08-20T00:18:18;4.20;;;3.90;;
16127;SDS011;8168;49.036;7.690;2023-08-20T00:20:49;3.90;;;3.60;;
16127;SDS011;8168;49.036;7.690;2023-08-20T00:23:19;4.07;;;3.67;;
16127;SDS011;8168;49.036;7.690;2023-08-20T00:25:50;4.28;;;3.78;;
16127;SDS011;8168;49.036;7.690;2023-08-20T00:28:21;4.90;;;3.53;;
16127;SDS011;8168;49.036;7.690;2023-08-20T00:30:52;3.70;;;3.40;;
16127;SDS011;8168;49.036;7.690;2023-08-20T00:33:23;4.00;;;3.70;;
16127;SDS011;8168;49.036;7.690;2023-08-20T00:35:53;5.53;;;3.40;;
16127;SDS011;8168;49.036;7.690;2023-08-20T00:38:24;4.68;;;4.10;;
16127;SDS011;8168;49.036;7.690;2023-08-20T00:40:54;4.13;;;3.75;;
16127;SDS011;8168;49.036;7.690;2023-08-20T00:43:25;4.13;;;3.83;;
16127;SDS011;8168;49.036;7.690;2023-08-20T00:45:56;3.67;;;3.38;;
16127;SDS011;8168;49.036;7.690;2023-08-20T00:48:28;3.70;;;3.40;;
16127;SDS011;8168;49.036;7.690;2023-08-20T00:50:59;3.63;;;3.33;;
16127;SDS011;8168;49.036;7.690;2023-08-20T00:53:30;3.30;;;2.97;;
16127;SDS011;8168;49.036;7.690;2023-08-20T00:56:00;3.65;;;3.00;;
16127;SDS011;8168;49.036;7.690;2023-08-20T00:58:32;4.22;;;2.97;;
16127;SDS011;8168;49.036;7.690;2023-08-20T01:01:03;3.40;;;3.10;;
16127;SDS011;8168;49.036;7.690;2023-08-20T01:03:33;3.45;;;3.15;;
16127;SDS011;8168;49.036;7.690;2023-08-20T01:06:19;4.10;;;3.70;;
16127;SDS011;8168;49.036;7.690;2023-08-20T01:09:05;4.43;;;4.03;;
16127;SDS011;8168;49.036;7.690;2023-08-20T01:12:12;3.53;;;3.22;;
16127;SDS011;8168;49.036;7.690;2023-08-20T01:14:44;4.72;;;3.65;;
16127;SDS011;8168;49.036;7.690;2023-08-20T01:17:14;6.22;;;4.50;;
16127;SDS011;8168;49.036;7.690;2023-08-20T01:19:45;5.93;;;4.00;;
16127;SDS011;8168;49.036;7.690;2023-08-20T01:25:32;4.57;;;3.63;;
16127;SDS011;8168;49.036;7.690;2023-08-20T01:28:28;8.98;;;4.60;;
16127;SDS011;8168;49.036;7.690;2023-08-20T01:31:00;8.25;;;4.50;;
16127;SDS011;8168;49.036;7.690;2023-08-20T01:33:31;5.28;;;4.18;;
16127;SDS011;8168;49.036;7.690;2023-08-20T01:36:02;4.00;;;3.70;;
16127;SDS011;8168;49.036;7.690;2023-08-20T01:38:38;3.85;;;3.55;;
16127;SDS011;8168;49.036;7.690;2023-08-20T01:41:09;6.85;;;4.20;;
16127;SDS011;8168;49.036;7.690;2023-08-20T01:43:39;3.42;;;3.05;;
16127;SDS011;8168;49.036;7.690;2023-08-20T01:46:10;4.47;;;4.07;;
16127;SDS011;8168;49.036;7.690;2023-08-20T01:48:42;5.97;;;4.75;;
16127;SDS011;8168;49.036;7.690;2023-08-20T01:51:13;6.30;;;4.40;;
16127;SDS011;8168;49.036;7.690;2023-08-20T01:53:43;5.75;;;4.38;;
16127;SDS011;8168;49.036;7.690;2023-08-20T01:56:14;5.43;;;4.65;;
16127;SDS011;8168;49.036;7.690;2023-08-20T01:58:46;5.70;;;4.70;;
16127;SDS011;8168;49.036;7.690;2023-08-20T02:01:16;4.97;;;4.10;;
16127;SDS011;8168;49.036;7.690;2023-08-20T02:03:47;4.37;;;3.97;;
16127;SDS011;8168;49.036;7.690;2023-08-20T02:06:17;13.37;;;5.97;;
16127;SDS011;8168;49.036;7.690;2023-08-20T02:08:48;6.88;;;4.95;;
16127;SDS011;8168;49.036;7.690;2023-08-20T02:11:19;7.97;;;5.83;;
16127;SDS011;8168;49.036;7.690;2023-08-20T02:13:49;10.43;;;5.93;;
16127;SDS011;8168;49.036;7.690;2023-08-20T02:16:20;14.17;;;6.57;;
16127;SDS011;8168;49.036;7.690;2023-08-20T02:18:50;9.88;;;6.78;;
16127;SDS011;8168;49.036;7.690;2023-08-20T02:21:21;9.23;;;6.50;;
16127;SDS011;8168;49.036;7.690;2023-08-20T02:23:51;6.47;;;5.60;;
16127;SDS011;8168;49.036;7.690;2023-08-20T02:26:22;9.73;;;6.40;;
16127;SDS011;8168;49.036;7.690;2023-08-20T02:28:53;9.68;;;6.05;;
16127;SDS011;8168;49.036;7.690;2023-08-20T02:31:23;10.13;;;5.70;;
16127;SDS011;8168;49.036;7.690;2023-08-20T02:33:54;13.15;;;6.00;;
16127;SDS011;8168;49.036;7.690;2023-08-20T02:36:24;6.70;;;4.80;;
16127;SDS011;8168;49.036;7.690;2023-08-20T02:38:55;6.00;;;5.40;;
16127;SDS011;8168;49.036;7.690;2023-08-20T02:41:26;5.40;;;4.88;;
16127;SDS011;8168;49.036;7.690;2023-08-20T02:43:56;6.77;;;4.60;;
16127;SDS011;8168;49.036;7.690;2023-08-20T02:46:27;5.33;;;4.60;;
16127;SDS011;8168;49.036;7.690;2023-08-20T02:48:57;6.53;;;5.23;;
16127;SDS011;8168;49.036;7.690;2023-08-20T02:51:28;6.55;;;5.95;;
16127;SDS011;8168;49.036;7.690;2023-08-20T02:53:59;8.57;;;6.67;;
16127;SDS011;8168;49.036;7.690;2023-08-20T02:56:29;9.80;;;6.37;;
16127;SDS011;8168;49.036;7.690;2023-08-20T02:59:00;7.75;;;6.28;;
16127;SDS011;8168;49.036;7.690;2023-08-20T03:01:31;8.27;;;6.67;;
16127;SDS011;8168;49.036;7.690;2023-08-20T03:04:02;7.88;;;6.50;;
16127;SDS011;8168;49.036;7.690;2023-08-20T03:06:34;7.40;;;6.25;;
16127;SDS011;8168;49.036;7.690;2023-08-20T03:09:04;7.77;;;6.97;;
16127;SDS011;8168;49.036;7.690;2023-08-20T03:11:35;7.20;;;6.50;;
16127;SDS011;8168;49.036;7.690;2023-08-20T03:14:06;7.60;;;6.70;;
16127;SDS011;8168;49.036;7.690;2023-08-20T03:16:37;6.93;;;6.25;;
16127;SDS011;8168;49.036;7.690;2023-08-20T03:19:08;7.78;;;6.43;;
16127;SDS011;8168;49.036;7.690;2023-08-20T03:21:38;7.45;;;6.70;;
16127;SDS011;8168;49.036;7.690;2023-08-20T03:24:09;11.88;;;6.70;;
16127;SDS011;8168;49.036;7.690;2023-08-20T03:26:39;8.57;;;6.90;;
16127;SDS011;8168;49.036;7.690;2023-08-20T03:29:10;10.60;;;7.20;;
16127;SDS011;8168;49.036;7.690;2023-08-20T03:31:40;7.60;;;6.87;;
16127;SDS011;8168;49.036;7.690;2023-08-20T03:34:11;7.97;;;6.88;;
16127;SDS011;8168;49.036;7.690;2023-08-20T03:36:42;12.00;;;6.90;;
16127;SDS011;8168;49.036;7.690;2023-08-20T03:39:12;8.52;;;6.80;;
16127;SDS011;8168;49.036;7.690;2023-08-20T03:41:43;7.28;;;6.50;;
16127;SDS011;8168;49.036;7.690;2023-08-20T03:44:14;8.13;;;7.25;;
16127;SDS011;8168;49.036;7.690;2023-08-20T03:46:44;7.28;;;6.57;;
16127;SDS011;8168;49.036;7.690;2023-08-20T03:49:15;7.97;;;7.10;;
16127;SDS011;8168;49.036;7.690;2023-08-20T03:51:46;9.50;;;7.50;;
16127;SDS011;8168;49.036;7.690;2023-08-20T03:54:16;7.67;;;6.97;;
16127;SDS011;8168;49.036;7.690;2023-08-20T03:56:47;7.25;;;6.57;;
16127;SDS011;8168;49.036;7.690;2023-08-20T03:59:17;7.78;;;6.72;;
16127;SDS011;8168;49.036;7.690;2023-08-20T04:01:48;7.93;;;6.53;;
16127;SDS011;8168;49.036;7.690;2023-08-20T04:04:22;8.40;;;6.60;;
16127;SDS011;8168;49.036;7.690;2023-08-20T04:06:53;8.18;;;7.32;;
16127;SDS011;8168;49.036;7.690;2023-08-20T04:09:23;7.60;;;6.67;;
16127;SDS011;8168;49.036;7.690;2023-08-20T04:11:54;8.00;;;6.50;;
16127;SDS011;8168;49.036;7.690;2023-08-20T04:14:24;7.47;;;6.40;;
16127;SDS011;8168;49.036;7.690;2023-08-20T04:16:55;6.45;;;5.78;;
16127;SDS011;8168;49.036;7.690;2023-08-20T04:19:25;6.93;;;6.23;;
16127;SDS011;8168;49.036;7.690;2023-08-20T04:21:56;7.10;;;6.40;;
16127;SDS011;8168;49.036;7.690;2023-08-20T04:24:27;9.05;;;7.30;;
16127;SDS011;8168;49.036;7.690;2023-08-20T04:26:57;10.88;;;6.60;;
16127;SDS011;8168;49.036;7.690;2023-08-20T04:29:28;9.50;;;7.00;;
16127;SDS011;8168;49.036;7.690;2023-08-20T04:31:58;8.13;;;6.40;;
16127;SDS011;8168;49.036;7.690;2023-08-20T04:34:29;7.30;;;6.37;;
16127;SDS011;8168;49.036;7.690;2023-08-20T04:37:00;7.15;;;6.45;;
16127;SDS011;8168;49.036;7.690;2023-08-20T04:39:30;7.45;;;6.38;;
16127;SDS011;8168;49.036;7.690;2023-08-20T04:42:01;8.03;;;7.23;;
16127;SDS011;8168;49.036;7.690;2023-08-20T04:44:31;8.40;;;6.72;;
16127;SDS011;8168;49.036;7.690;2023-08-20T04:47:02;8.73;;;6.83;;
16127;SDS011;8168;49.036;7.690;2023-08-20T04:49:33;8.67;;;7.00;;
16127;SDS011;8168;49.036;7.690;2023-08-20T04:52:03;8.40;;;6.80;;
16127;SDS011;8168;49.036;7.690;2023-08-20T04:54:34;7.80;;;7.00;;
16127;SDS011;8168;49.036;7.690;2023-08-20T04:57:05;7.70;;;6.87;;
16127;SDS011;8168;49.036;7.690;2023-08-20T04:59:35;10.05;;;7.70;;
16127;SDS011;8168;49.036;7.690;2023-08-20T05:02:06;9.27;;;7.10;;
16127;SDS011;8168;49.036;7.690;2023-08-20T05:04:37;11.68;;;6.75;;
16127;SDS011;8168;49.036;7.690;2023-08-20T05:07:08;6.87;;;6.23;;
16127;SDS011;8168;49.036;7.690;2023-08-20T05:09:39;7.03;;;6.32;;
16127;SDS011;8168;49.036;7.690;2023-08-20T05:12:09;7.43;;;6.72;;
16127;SDS011;8168;49.036;7.690;2023-08-20T05:14:40;8.05;;;6.93;;
16127;SDS011;8168;49.036;7.690;2023-08-20T05:17:10;8.70;;;7.35;;
16127;SDS011;8168;49.036;7.690;2023-08-20T05:19:41;7.30;;;6.53;;
16127;SDS011;8168;49.036;7.690;2023-08-20T05:22:12;7.93;;;7.13;;
16127;SDS011;8168;49.036;7.690;2023-08-20T05:24:42;8.43;;;7.50;;
16127;SDS011;8168;49.036;7.690;2023-08-20T05:27:14;8.07;;;6.90;;
16127;SDS011;8168;49.036;7.690;2023-08-20T05:29:47;7.90;;;6.63;;
16127;SDS011;8168;49.036;7.690;2023-08-20T05:32:17;8.43;;;7.57;;
16127;SDS011;8168;49.036;7.690;2023-08-20T05:34:48;7.97;;;7.17;;
16127;SDS011;8168;49.036;7.690;2023-08-20T05:37:18;8.57;;;6.97;;
16127;SDS011;8168;49.036;7.690;2023-08-20T05:39:49;9.30;;;7.70;;
16127;SDS011;8168;49.036;7.690;2023-08-20T05:42:20;8.48;;;7.07;;
16127;SDS011;8168;49.036;7.690;2023-08-20T05:44:50;8.77;;;7.70;;
16127;SDS011;8168;49.036;7.690;2023-08-20T05:47:21;10.10;;;8.17;;
16127;SDS011;8168;49.036;7.690;2023-08-20T05:49:51;8.57;;;7.23;;
16127;SDS011;8168;49.036;7.690;2023-08-20T05:52:22;8.48;;;7.63;;
16127;SDS011;8168;49.036;7.690;2023-08-20T05:54:53;9.15;;;8.25;;
16127;SDS011;8168;49.036;7.690;2023-08-20T05:57:23;8.93;;;7.37;;
16127;SDS011;8168;49.036;7.690;2023-08-20T05:59:54;8.97;;;8.07;;
16127;SDS011;8168;49.036;7.690;2023-08-20T06:02:24;10.05;;;8.02;;
16127;SDS011;8168;49.036;7.690;2023-08-20T06:04:55;8.27;;;7.47;;
16127;SDS011;8168;49.036;7.690;2023-08-20T06:07:26;8.95;;;7.65;;
16127;SDS011;8168;49.036;7.690;2023-08-20T06:09:56;11.18;;;7.50;;
16127;SDS011;8168;49.036;7.690;2023-08-20T06:12:27;9.20;;;8.30;;
16127;SDS011;8168;49.036;7.690;2023-08-20T06:14:58;11.95;;;8.55;;
16127;SDS011;8168;49.036;7.690;2023-08-20T06:17:28;9.40;;;8.40;;
16127;SDS011;8168;49.036;7.690;2023-08-20T06:19:59;10.75;;;8.40;;
16127;SDS011;8168;49.036;7.690;2023-08-20T06:22:30;8.25;;;7.45;;
16127;SDS011;8168;49.036;7.690;2023-08-20T06:25:01;12.00;;;7.88;;
16127;SDS011;8168;49.036;7.690;2023-08-20T06:27:33;9.48;;;8.00;;
16127;SDS011;8168;49.036;7.690;2023-08-20T06:30:04;8.98;;;8.10;;
16127;SDS011;8168;49.036;7.690;2023-08-20T06:32:35;7.97;;;7.22;;
16127;SDS011;8168;49.036;7.690;2023-08-20T06:35:06;10.63;;;8.05;;
16127;SDS011;8168;49.036;7.690;2023-08-20T06:37:39;11.00;;;8.27;;
16127;SDS011;8168;49.036;7.690;2023-08-20T06:40:10;9.50;;;8.30;;
16127;SDS011;8168;49.036;7.690;2023-08-20T06:42:41;9.80;;;7.40;;
16127;SDS011;8168;49.036;7.690;2023-08-20T06:45:11;9.93;;;8.10;;
16127;SDS011;8168;49.036;7.690;2023-08-20T06:47:42;8.85;;;8.02;;
16127;SDS011;8168;49.036;7.690;2023-08-20T06:50:13;8.90;;;7.57;;
16127;SDS011;8168;49.036;7.690;2023-08-20T06:52:43;9.13;;;8.23;;
16127;SDS011;8168;49.036;7.690;2023-08-20T06:55:14;11.65;;;7.97;;
16127;SDS011;8168;49.036;7.690;2023-08-20T06:57:44;9.50;;;8.60;;
16127;SDS011;8168;49.036;7.690;2023-08-20T07:00:15;9.27;;;8.18;;
16127;SDS011;8168;49.036;7.690;2023-08-20T07:02:46;9.15;;;8.18;;
16127;SDS011;8168;49.036;7.690;2023-08-20T07:05:16;9.10;;;7.93;;
16127;SDS011;8168;49.036;7.690;2023-08-20T07:07:48;15.52;;;8.80;;
16127;SDS011;8168;49.036;7.690;2023-08-20T07:10:18;10.88;;;8.95;;
16127;SDS011;8168;49.036;7.690;2023-08-20T07:12:49;9.43;;;8.40;;
16127;SDS011;8168;49.036;7.690;2023-08-20T07:15:19;8.05;;;7.25;;
16127;SDS011;8168;49.036;7.690;2023-08-20T07:17:50;8.27;;;7.43;;
16127;SDS011;8168;49.036;7.690;2023-08-20T07:20:21;9.18;;;8.10;;
16127;SDS011;8168;49.036;7.690;2023-08-20T07:22:51;8.38;;;7.57;;
16127;SDS011;8168;49.036;7.690;2023-08-20T07:25:22;8.63;;;7.80;;
16127;SDS011;8168;49.036;7.690;2023-08-20T07:27:52;7.93;;;7.22;;
16127;SDS011;8168;49.036;7.690;2023-08-20T07:30:29;11.25;;;7.70;;
16127;SDS011;8168;49.036;7.690;2023-08-20T07:33:00;8.00;;;6.30;;
16127;SDS011;8168;49.036;7.690;2023-08-20T07:35:31;8.05;;;7.25;;
16127;SDS011;8168;49.036;7.690;2023-08-20T07:38:01;7.68;;;6.97;;
16127;SDS011;8168;49.036;7.690;2023-08-20T07:40:32;8.45;;;6.78;;
16127;SDS011;8168;49.036;7.690;2023-08-20T07:43:02;6.68;;;5.97;;
16127;SDS011;8168;49.036;7.690;2023-08-20T07:45:33;6.78;;;6.13;;
16127;SDS011;8168;49.036;7.690;2023-08-20T07:48:04;6.32;;;5.72;;
16127;SDS011;8168;49.036;7.690;2023-08-20T07:50:35;6.05;;;5.47;;
16127;SDS011;8168;49.036;7.690;2023-08-20T07:53:05;5.90;;;5.40;;
16127;SDS011;8168;49.036;7.690;2023-08-20T07:55:36;6.32;;;5.82;;
16127;SDS011;8168;49.036;7.690;2023-08-20T07:58:07;6.57;;;5.82;;
16127;SDS011;8168;49.036;7.690;2023-08-20T08:00:37;5.85;;;5.28;;
16127;SDS011;8168;49.036;7.690;2023-08-20T08:03:08;6.28;;;5.68;;
16127;SDS011;8168;49.036;7.690;2023-08-20T08:05:40;5.72;;;5.22;;
16127;SDS011;8168;49.036;7.690;2023-08-20T08:08:11;7.00;;;5.45;;
16127;SDS011;8168;49.036;7.690;2023-08-20T08:10:41;5.88;;;5.38;;
16127;SDS011;8168;49.036;7.690;2023-08-20T08:13:15;6.55;;;5.68;;
16127;SDS011;8168;49.036;7.690;2023-08-20T08:15:47;6.25;;;5.68;;
16127;SDS011;8168;49.036;7.690;2023-08-20T08:18:19;5.90;;;5.40;;
16127;SDS011;8168;49.036;7.690;2023-08-20T08:20:50;5.70;;;5.20;;
16127;SDS011;8168;49.036;7.690;2023-08-20T08:23:20;6.50;;;5.63;;
16127;SDS011;8168;49.036;7.690;2023-08-20T08:25:51;5.72;;;5.22;;
16127;SDS011;8168;49.036;7.690;2023-08-20T08:28:21;5.78;;;4.78;;
16127;SDS011;8168;49.036;7.690;2023-08-20T08:30:52;5.07;;;4.68;;
16127;SDS011;8168;49.036;7.690;2023-08-20T08:33:23;4.20;;;3.90;;
16127;SDS011;8168;49.036;7.690;2023-08-20T08:35:54;5.18;;;4.15;;
16127;SDS011;8168;49.036;7.690;2023-08-20T08:38:24;5.20;;;3.80;;
16127;SDS011;8168;49.036;7.690;2023-08-20T08:40:55;5.63;;;4.20;;
16127;SDS011;8168;49.036;7.690;2023-08-20T08:43:26;4.38;;;4.05;;
16127;SDS011;8168;49.036;7.690;2023-08-20T08:45:58;4.80;;;4.40;;
16127;SDS011;8168;49.036;7.690;2023-08-20T08:48:31;5.32;;;4.75;;
16127;SDS011;8168;49.036;7.690;2023-08-20T08:51:02;4.80;;;3.85;;
16127;SDS011;8168;49.036;7.690;2023-08-20T08:53:33;4.40;;;3.97;;
16127;SDS011;8168;49.036;7.690;2023-08-20T08:56:04;4.53;;;4.13;;
16127;SDS011;8168;49.036;7.690;2023-08-20T08:58:35;4.10;;;3.70;;
16127;SDS011;8168;49.036;7.690;2023-08-20T09:01:06;4.88;;;4.47;;
16127;SDS011;8168;49.036;7.690;2023-08-20T09:03:36;4.68;;;4.28;;
16127;SDS011;8168;49.036;7.690;2023-08-20T09:06:08;5.60;;;4.07;;
16127;SDS011;8168;49.036;7.690;2023-08-20T09:08:39;7.25;;;4.05;;
16127;SDS011;8168;49.036;7.690;2023-08-20T09:11:10;4.55;;;3.70;;
16127;SDS011;8168;49.036;7.690;2023-08-20T09:13:41;4.03;;;3.67;;
16127;SDS011;8168;49.036;7.690;2023-08-20T09:16:13;3.90;;;3.60;;
16127;SDS011;8168;49.036;7.690;2023-08-20T09:18:44;4.93;;;4.53;;
16127;SDS011;8168;49.036;7.690;2023-08-20T09:21:15;4.05;;;3.42;;
16127;SDS011;8168;49.036;7.690;2023-08-20T09:23:46;7.68;;;4.18;;
16127;SDS011;8168;49.036;7.690;2023-08-20T09:26:17;3.92;;;3.60;;
16127;SDS011;8168;49.036;7.690;2023-08-20T09:28:47;4.40;;;3.83;;
16127;SDS011;8168;49.036;7.690;2023-08-20T09:31:18;3.88;;;3.58;;
16127;SDS011;8168;49.036;7.690;2023-08-20T09:33:52;4.20;;;3.80;;
16127;SDS011;8168;49.036;7.690;2023-08-20T09:36:31;5.32;;;3.78;;
16127;SDS011;8168;49.036;7.690;2023-08-20T09:39:03;4.43;;;4.07;;
16127;SDS011;8168;49.036;7.690;2023-08-20T09:41:34;3.95;;;3.63;;
16127;SDS011;8168;49.036;7.690;2023-08-20T09:44:06;4.57;;;4.15;;
16127;SDS011;8168;49.036;7.690;2023-08-20T09:46:39;4.07;;;3.78;;
16127;SDS011;8168;49.036;7.690;2023-08-20T09:49:12;4.10;;;3.35;;
16127;SDS011;8168;49.036;7.690;2023-08-20T09:51:48;3.63;;;3.33;;
16127;SDS011;8168;49.036;7.690;2023-08-20T09:54:24;4.57;;;4.10;;
16127;SDS011;8168;49.036;7.690;2023-08-20T09:57:00;5.75;;;3.53;;
16127;SDS011;8168;49.036;7.690;2023-08-20T09:59:32;3.80;;;3.42;;
16127;SDS011;8168;49.036;7.690;2023-08-20T10:02:05;4.55;;;4.03;;
16127;SDS011;8168;49.036;7.690;2023-08-20T10:04:40;5.22;;;3.85;;
16127;SDS011;8168;49.036;7.690;2023-08-20T10:07:12;3.78;;;3.47;;
16127;SDS011;8168;49.036;7.690;2023-08-20T10:09:43;4.75;;;3.35;;
16127;SDS011;8168;49.036;7.690;2023-08-20T10:12:16;4.25;;;3.38;;
16127;SDS011;8168;49.036;7.690;2023-08-20T10:14:46;3.90;;;3.60;;
16127;SDS011;8168;49.036;7.690;2023-08-20T10:17:17;4.28;;;3.60;;
16127;SDS011;8168;49.036;7.690;2023-08-20T10:19:48;4.82;;;3.95;;
16127;SDS011;8168;49.036;7.690;2023-08-20T10:22:19;4.50;;;4.10;;
16127;SDS011;8168;49.036;7.690;2023-08-20T10:24:51;3.83;;;3.53;;
16127;SDS011;8168;49.036;7.690;2023-08-20T10:27:32;4.13;;;3.72;;
16127;SDS011;8168;49.036;7.690;2023-08-20T10:30:07;6.05;;;3.50;;
16127;SDS011;8168;49.036;7.690;2023-08-20T10:35:25;4.05;;;3.63;;
16127;SDS011;8168;49.036;7.690;2023-08-20T10:38:07;4.00;;;3.58;;
16127;SDS011;8168;49.036;7.690;2023-08-20T10:40:57;3.67;;;3.38;;
16127;SDS011;8168;49.036;7.690;2023-08-20T10:46:19;4.15;;;3.50;;
16127;SDS011;8168;49.036;7.690;2023-08-20T10:48:55;3.45;;;3.15;;
16127;SDS011;8168;49.036;7.690;2023-08-20T10:51:28;3.50;;;3.20;;
16127;SDS011;8168;49.036;7.690;2023-08-20T10:56:44;3.50;;;3.17;;
16127;SDS011;8168;49.036;7.690;2023-08-20T10:59:28;3.33;;;3.03;;
16127;SDS011;8168;49.036;7.690;2023-08-20T11:02:03;2.88;;;2.60;;
16127;SDS011;8168;49.036;7.690;2023-08-20T11:04:36;3.20;;;2.90;;
16127;SDS011;8168;49.036;7.690;2023-08-20T11:07:08;4.20;;;2.95;;
16127;SDS011;8168;49.036;7.690;2023-08-20T11:09:39;3.30;;;2.83;;
16127;SDS011;8168;49.036;7.690;2023-08-20T11:12:10;5.38;;;3.30;;
16127;SDS011;8168;49.036;7.690;2023-08-20T11:14:41;3.70;;;3.40;;
16127;SDS011;8168;49.036;7.690;2023-08-20T11:17:11;4.05;;;3.05;;
16127;SDS011;8168;49.036;7.690;2023-08-20T11:19:43;3.65;;;3.35;;
16127;SDS011;8168;49.036;7.690;2023-08-20T11:22:13;3.85;;;3.30;;
16127;SDS011;8168;49.036;7.690;2023-08-20T11:24:46;3.35;;;3.05;;
16127;SDS011;8168;49.036;7.690;2023-08-20T11:27:16;3.65;;;3.17;;
16127;SDS011;8168;49.036;7.690;2023-08-20T11:29:47;3.00;;;2.80;;
16127;SDS011;8168;49.036;7.690;2023-08-20T11:32:17;3.28;;;2.97;;
16127;SDS011;8168;49.036;7.690;2023-08-20T11:34:49;3.55;;;3.00;;
16127;SDS011;8168;49.036;7.690;2023-08-20T11:37:20;3.08;;;2.88;;
16127;SDS011;8168;49.036;7.690;2023-08-20T11:39:51;3.55;;;3.25;;
16127;SDS011;8168;49.036;7.690;2023-08-20T11:42:22;4.20;;;3.30;;
16127;SDS011;8168;49.036;7.690;2023-08-20T11:44:54;3.15;;;2.85;;
16127;SDS011;8168;49.036;7.690;2023-08-20T11:47:27;4.00;;;3.50;;
16127;SDS011;8168;49.036;7.690;2023-08-20T11:50:04;3.58;;;3.28;;
16127;SDS011;8168;49.036;7.690;2023-08-20T11:52:35;3.10;;;2.90;;
16127;SDS011;8168;49.036;7.690;2023-08-20T11:55:07;5.07;;;3.40;;
16127;SDS011;8168;49.036;7.690;2023-08-20T11:57:37;3.60;;;3.30;;
16127;SDS011;8168;49.036;7.690;2023-08-20T12:00:08;3.85;;;3.53;;
16127;SDS011;8168;49.036;7.690;2023-08-20T12:02:54;3.42;;;3.13;;
16127;SDS011;8168;49.036;7.690;2023-08-20T12:05:28;3.65;;;3.35;;
16127;SDS011;8168;49.036;7.690;2023-08-20T12:07:59;3.83;;;3.05;;
16127;SDS011;8168;49.036;7.690;2023-08-20T12:10:32;5.43;;;3.38;;
16127;SDS011;8168;49.036;7.690;2023-08-20T12:13:03;3.83;;;3.05;;
16127;SDS011;8168;49.036;7.690;2023-08-20T12:15:34;3.42;;;3.13;;
16127;SDS011;8168;49.036;7.690;2023-08-20T12:18:05;4.00;;;3.10;;
16127;SDS011;8168;49.036;7.690;2023-08-20T12:20:35;6.10;;;3.65;;
16127;SDS011;8168;49.036;7.690;2023-08-20T12:23:07;3.45;;;3.17;;
16127;SDS011;8168;49.036;7.690;2023-08-20T12:25:37;3.95;;;3.47;;
16127;SDS011;8168;49.036;7.690;2023-08-20T12:28:08;3.55;;;3.13;;
16127;SDS011;8168;49.036;7.690;2023-08-20T12:30:39;4.63;;;3.10;;
16127;SDS011;8168;49.036;7.690;2023-08-20T12:33:10;4.13;;;3.50;;
16127;SDS011;8168;49.036;7.690;2023-08-20T12:35:41;4.00;;;3.50;;
16127;SDS011;8168;49.036;7.690;2023-08-20T12:38:11;3.38;;;3.17;;
16127;SDS011;8168;49.036;7.690;2023-08-20T12:40:42;3.53;;;3.22;;
16127;SDS011;8168;49.036;7.690;2023-08-20T12:43:13;3.38;;;3.08;;
16127;SDS011;8168;49.036;7.690;2023-08-20T12:45:43;3.38;;;3.08;;
16127;SDS011;8168;49.036;7.690;2023-08-20T12:48:14;3.28;;;3.05;;
16127;SDS011;8168;49.036;7.690;2023-08-20T12:50:45;3.63;;;3.33;;
16127;SDS011;8168;49.036;7.690;2023-08-20T12:53:16;4.57;;;3.58;;
16127;SDS011;8168;49.036;7.690;2023-08-20T12:55:46;3.80;;;3.50;;
16127;SDS011;8168;49.036;7.690;2023-08-20T12:58:17;5.55;;;3.00;;
16127;SDS011;8168;49.036;7.690;2023-08-20T13:00:48;3.13;;;2.92;;
16127;SDS011;8168;49.036;7.690;2023-08-20T13:03:18;4.15;;;3.38;;
16127;SDS011;8168;49.036;7.690;2023-08-20T13:05:49;4.65;;;3.17;;
16127;SDS011;8168;49.036;7.690;2023-08-20T13:08:20;4.15;;;3.70;;
16127;SDS011;8168;49.036;7.690;2023-08-20T13:10:55;3.50;;;3.20;;
16127;SDS011;8168;49.036;7.690;2023-08-20T13:13:26;6.25;;;3.45;;
16127;SDS011;8168;49.036;7.690;2023-08-20T13:15:57;3.60;;;3.30;;
16127;SDS011;8168;49.036;7.690;2023-08-20T13:18:29;4.05;;;3.50;;
16127;SDS011;8168;49.036;7.690;2023-08-20T13:21:00;3.63;;;3.33;;
16127;SDS011;8168;49.036;7.690;2023-08-20T13:23:33;4.10;;;3.72;;
16127;SDS011;8168;49.036;7.690;2023-08-20T13:26:04;3.63;;;3.30;;
16127;SDS011;8168;49.036;7.690;2023-08-20T13:28:35;4.03;;;3.72;;
16127;SDS011;8168;49.036;7.690;2023-08-20T13:31:06;3.78;;;3.10;;
16127;SDS011;8168;49.036;7.690;2023-08-20T13:33:36;3.70;;;3.40;;
16127;SDS011;8168;49.036;7.690;2023-08-20T13:36:07;6.18;;;3.45;;
16127;SDS011;8168;49.036;7.690;2023-08-20T13:38:37;3.60;;;3.30;;
16127;SDS011;8168;49.036;7.690;2023-08-20T13:41:08;3.95;;;3.17;;
16127;SDS011;8168;49.036;7.690;2023-08-20T13:43:39;4.32;;;3.08;;
16127;SDS011;8168;49.036;7.690;2023-08-20T13:46:10;3.30;;;3.00;;
16127;SDS011;8168;49.036;7.690;2023-08-20T13:48:40;3.47;;;2.90;;
16127;SDS011;8168;49.036;7.690;2023-08-20T13:51:11;4.30;;;3.35;;
16127;SDS011;8168;49.036;7.690;2023-08-20T13:53:41;5.63;;;3.10;;
16127;SDS011;8168;49.036;7.690;2023-08-20T13:56:12;4.78;;;3.60;;
16127;SDS011;8168;49.036;7.690;2023-08-20T13:58:42;3.90;;;3.25;;
16127;SDS011;8168;49.036;7.690;2023-08-20T14:01:13;7.20;;;3.75;;
16127;SDS011;8168;49.036;7.690;2023-08-20T14:03:44;3.67;;;3.22;;
16127;SDS011;8168;49.036;7.690;2023-08-20T14:06:14;5.57;;;3.65;;
16127;SDS011;8168;49.036;7.690;2023-08-20T14:08:46;3.67;;;3.40;;
16127;SDS011;8168;49.036;7.690;2023-08-20T14:11:17;4.38;;;3.53;;
16127;SDS011;8168;49.036;7.690;2023-08-20T14:13:48;3.83;;;2.90;;
16127;SDS011;8168;49.036;7.690;2023-08-20T14:16:19;3.72;;;3.42;;
16127;SDS011;8168;49.036;7.690;2023-08-20T14:18:49;3.55;;;3.25;;
16127;SDS011;8168;49.036;7.690;2023-08-20T14:21:20;4.35;;;3.03;;
16127;SDS011;8168;49.036;7.690;2023-08-20T14:23:50;3.95;;;3.55;;
16127;SDS011;8168;49.036;7.690;2023-08-20T14:26:21;4.38;;;3.35;;
16127;SDS011;8168;49.036;7.690;2023-08-20T14:28:52;4.00;;;3.45;;
16127;SDS011;8168;49.036;7.690;2023-08-20T14:31:22;3.80;;;3.42;;
16127;SDS011;8168;49.036;7.690;2023-08-20T14:33:54;4.00;;;3.60;;
16127;SDS011;8168;49.036;7.690;2023-08-20T14:36:24;3.60;;;3.17;;
16127;SDS011;8168;49.036;7.690;2023-08-20T14:38:55;3.85;;;3.50;;
16127;SDS011;8168;49.036;7.690;2023-08-20T14:41:26;3.88;;;3.30;;
16127;SDS011;8168;49.036;7.690;2023-08-20T14:43:57;3.47;;;3.17;;
16127;SDS011;8168;49.036;7.690;2023-08-20T14:46:27;4.40;;;3.50;;
16127;SDS011;8168;49.036;7.690;2023-08-20T14:48:58;3.40;;;3.10;;
16127;SDS011;8168;49.036;7.690;2023-08-20T14:51:28;3.70;;;3.38;;
16127;SDS011;8168;49.036;7.690;2023-08-20T14:53:59;3.80;;;3.50;;
16127;SDS011;8168;49.036;7.690;2023-08-20T14:56:29;4.20;;;3.40;;
16127;SDS011;8168;49.036;7.690;2023-08-20T14:59:00;3.83;;;3.40;;
16127;SDS011;8168;49.036;7.690;2023-08-20T15:01:31;4.32;;;3.97;;
16127;SDS011;8168;49.036;7.690;2023-08-20T15:04:01;3.65;;;3.35;;
16127;SDS011;8168;49.036;7.690;2023-08-20T15:06:32;4.00;;;3.67;;
16127;SDS011;8168;49.036;7.690;2023-08-20T15:09:03;4.43;;;3.10;;
16127;SDS011;8168;49.036;7.690;2023-08-20T15:11:33;4.28;;;3.50;;
16127;SDS011;8168;49.036;7.690;2023-08-20T15:14:04;4.03;;;3.67;;
16127;SDS011;8168;49.036;7.690;2023-08-20T15:16:35;4.05;;;3.65;;
16127;SDS011;8168;49.036;7.690;2023-08-20T15:19:06;4.38;;;3.97;;
16127;SDS011;8168;49.036;7.690;2023-08-20T15:21:36;4.07;;;3.67;;
16127;SDS011;8168;49.036;7.690;2023-08-20T15:24:07;4.22;;;3.70;;
16127;SDS011;8168;49.036;7.690;2023-08-20T15:26:37;3.95;;;3.63;;
16127;SDS011;8168;49.036;7.690;2023-08-20T15:29:08;3.88;;;3.58;;
16127;SDS011;8168;49.036;7.690;2023-08-20T15:31:38;4.68;;;3.40;;
16127;SDS011;8168;49.036;7.690;2023-08-20T15:34:09;4.38;;;3.72;;
16127;SDS011;8168;49.036;7.690;2023-08-20T15:36:40;4.75;;;3.70;;